National Oceanic Atmosphere Administration National Weather Service Headquarters National Weather Service Headquarters
NOAA logo WFO Anchorage Scalable transition graphic NWS logo
Transition from title bar to navgation bar   Aviation Weather 14 AKDT 
blankspace Home   |   Mobile   |   Social Media   |   Mesonet   |   Surface Map   |   Radar   |   Submit Storm Reports =22 GMT 

LocalForecast by City, St or Zip Code

spacer

Forecasts/Products
  Public
  Forecast Discussion
    - With Glossary
  Aviation
  Marine
  Hydrology(RFC)
  Rivers & Lakes AHPS
  Ice Desk
  TV Weather
  Fire Weather
  Avalanche
  Travel 511
  Graphical
  xml logo RSS Feeds
  Marine FTPMail

spacer

Data
  Mesonet
  Model Graphics
  Local Model
  Observations
  Marine Obs
  Satellite/Radar
  Vent Factor
  Soaring Index
  Weather Links

spacer

Climate
  PAFC Climate
  Interactive Climate
  PAFC Records
  Local
  National
  More

spacer

Outreach
  About Us
  Community Outreach
  Kids' Page
  Tour/Speaker Request
  Weather Classroom
  Social Media

spacer

Reports
  COOP Observers
  Local Storm Reports
  Spotter Page
  Submit a Storm Report

spacer

Miscellaneous
  Archived Alaska Weather Stories
  Student Career Opportunities
  Research Papers

spacer

Print Friendly/
Low Bandwidth

  Public Forecasts
  Marine Forecasts

spacer

Contact Us
  mailto pafcweb

spacer

Facebook Follow the National Weather Service in Alaska on Twitter
USA.gov is the U.S. government's official web portal to all federal, state and local government web resources and services.


 ICAO ID:   AAWU Graphics

Internet access to TAFs and METAR observations is for planning purposes only. We can not guarantee the timeliness of internet products. Before flying please get a formal pilot briefing (1-800-992-7433) and ALWAYS file a Flight Plan!Pilot briefings are provided to licensed aircraft pilots, ONLY! Others may not use the above number to obtain weather information.

Check out the Key to TAFs and METARs for help with decoding the information.

A 12 hour summary of TAFs can be found here.

PABI TAF
PABI 2404/ VRB06KT 9999 BKN040 OVC060 600409 QNH2977INS

 
      BECMG 2317/2318 24009KT 8000 -SHRASN OVC030 610309
      QNH2986INS
      BECMG 2323/2324 26009KT 9000 -SHRA BKN030 OVC060
      610409
      QNH2987INS TX04/2323Z TNM01/2313Z=


SPECI PABI 222202Z 29005KT 10SM SCT034 BKN045 OVC065 03/M03 A2977
 RMK AO2 WATERFOWL VC SW T00331033=
PABI 222202Z 29005KT 10SM SCT034 BKN045 OVC065 03/M03 A2977=
METAR PABI 222153Z 31004KT 10SM BKN026 BKN045 OVC065 03/M03 A2977 RMK
     AO2 SLP101 WATERFOWL VC SW T00281033=
METAR PABI 222153Z 31004KT 10SM BKN026 BKN045 OVC065 03/M03 A2977=
SPECI PABI 222132Z 32004KT 10SM BKN026 BKN045 OVC065 03/M03 A2977
 RMK AO2 T00281028=
PABI 222132Z 32004KT 10SM BKN026 BKN045 OVC065 03/M03 A2977=
METAR PABI 222053Z 25005KT 10SM BKN038 OVC065 02/M03 A2976 RMK AO2
     SLP097 T00221033 51013=
METAR PABI 222053Z 25005KT 10SM BKN038 OVC065 02/M03 A2976=
METAR PABI 221953Z 26003KT 10SM BKN038 OVC065 02/M03 A2975 RMK AO2
     SLP094 T00171028 $=
METAR PABI 221953Z 26003KT 10SM BKN038 OVC065 02/M03 A2975=
METAR PABI 221853Z 26004KT 10SM BKN040 OVC060 01/M03 A2974 RMK AO2
     SLP090 WATERFOWL VC NW-NE T00111028 $=
METAR PABI 221853Z 26004KT 10SM BKN040 OVC060 01/M03 A2974=


National Weather Service
Anchorage Forecast Office
6930 Sand Lake Road
Anchorage, Ak 99502
(907) 266-5105 M-F/7-5pm
About Us
Career Opportunities
Glossary
Disclaimer
Privacy Policy
Credits
Alaska Weather Information Line:
1-800-472-0391